sensor_id;sensor_type;location;lat;lon;timestamp;P1;durP1;ratioP1;P2;durP2;ratioP2
75098;SDS011;63685;47.374;8.498;2022-11-21T00:00:43;9.13;;;3.53;;
75098;SDS011;63685;47.374;8.498;2022-11-21T00:03:11;7.80;;;3.53;;
75098;SDS011;63685;47.374;8.498;2022-11-21T00:05:40;10.15;;;3.92;;
75098;SDS011;63685;47.374;8.498;2022-11-21T00:08:08;11.00;;;4.45;;
75098;SDS011;63685;47.374;8.498;2022-11-21T00:10:36;10.10;;;3.70;;
75098;SDS011;63685;47.374;8.498;2022-11-21T00:13:03;9.00;;;3.50;;
75098;SDS011;63685;47.374;8.498;2022-11-21T00:15:30;7.60;;;3.30;;
75098;SDS011;63685;47.374;8.498;2022-11-21T00:17:57;10.60;;;3.35;;
75098;SDS011;63685;47.374;8.498;2022-11-21T00:20:22;9.38;;;3.92;;
75098;SDS011;63685;47.374;8.498;2022-11-21T00:22:48;11.02;;;3.42;;
75098;SDS011;63685;47.374;8.498;2022-11-21T00:25:14;9.40;;;3.00;;
75098;SDS011;63685;47.374;8.498;2022-11-21T00:27:40;7.38;;;3.33;;
75098;SDS011;63685;47.374;8.498;2022-11-21T00:30:07;8.57;;;3.38;;
75098;SDS011;63685;47.374;8.498;2022-11-21T00:32:33;9.50;;;3.88;;
75098;SDS011;63685;47.374;8.498;2022-11-21T00:34:59;8.18;;;3.33;;
75098;SDS011;63685;47.374;8.498;2022-11-21T00:37:24;9.68;;;3.58;;
75098;SDS011;63685;47.374;8.498;2022-11-21T00:39:50;10.10;;;3.38;;
75098;SDS011;63685;47.374;8.498;2022-11-21T00:42:15;9.13;;;3.15;;
75098;SDS011;63685;47.374;8.498;2022-11-21T00:44:41;6.85;;;2.95;;
75098;SDS011;63685;47.374;8.498;2022-11-21T00:47:07;11.23;;;3.63;;
75098;SDS011;63685;47.374;8.498;2022-11-21T00:49:32;9.05;;;3.20;;
75098;SDS011;63685;47.374;8.498;2022-11-21T00:51:58;7.85;;;3.30;;
75098;SDS011;63685;47.374;8.498;2022-11-21T00:54:23;9.45;;;3.45;;
75098;SDS011;63685;47.374;8.498;2022-11-21T00:56:49;8.75;;;3.70;;
75098;SDS011;63685;47.374;8.498;2022-11-21T00:59:14;9.77;;;3.85;;
75098;SDS011;63685;47.374;8.498;2022-11-21T01:01:40;9.05;;;3.67;;
75098;SDS011;63685;47.374;8.498;2022-11-21T01:04:05;10.93;;;3.67;;
75098;SDS011;63685;47.374;8.498;2022-11-21T01:06:31;8.30;;;3.40;;
75098;SDS011;63685;47.374;8.498;2022-11-21T01:08:56;8.50;;;3.53;;
75098;SDS011;63685;47.374;8.498;2022-11-21T01:11:22;10.85;;;3.28;;
75098;SDS011;63685;47.374;8.498;2022-11-21T01:13:48;10.02;;;3.15;;
75098;SDS011;63685;47.374;8.498;2022-11-21T01:16:18;8.27;;;3.17;;
75098;SDS011;63685;47.374;8.498;2022-11-21T01:18:45;8.30;;;3.47;;
75098;SDS011;63685;47.374;8.498;2022-11-21T01:21:15;8.05;;;3.63;;
75098;SDS011;63685;47.374;8.498;2022-11-21T01:23:43;9.68;;;3.15;;
75098;SDS011;63685;47.374;8.498;2022-11-21T01:26:10;7.88;;;2.95;;
75098;SDS011;63685;47.374;8.498;2022-11-21T01:28:41;10.85;;;3.55;;
75098;SDS011;63685;47.374;8.498;2022-11-21T01:31:17;6.70;;;3.00;;
75098;SDS011;63685;47.374;8.498;2022-11-21T01:33:44;8.75;;;3.35;;
75098;SDS011;63685;47.374;8.498;2022-11-21T01:38:37;7.07;;;3.03;;
75098;SDS011;63685;47.374;8.498;2022-11-21T01:41:04;11.00;;;3.40;;
75098;SDS011;63685;47.374;8.498;2022-11-21T01:43:30;8.07;;;3.45;;
75098;SDS011;63685;47.374;8.498;2022-11-21T01:46:16;6.40;;;2.85;;
75098;SDS011;63685;47.374;8.498;2022-11-21T01:51:31;10.65;;;3.10;;
75098;SDS011;63685;47.374;8.498;2022-11-21T01:54:05;7.18;;;2.80;;
75098;SDS011;63685;47.374;8.498;2022-11-21T01:56:48;13.02;;;3.17;;
75098;SDS011;63685;47.374;8.498;2022-11-21T01:59:37;6.07;;;2.42;;
75098;SDS011;63685;47.374;8.498;2022-11-21T02:02:14;9.05;;;3.17;;
75098;SDS011;63685;47.374;8.498;2022-11-21T02:04:42;7.85;;;2.83;;
75098;SDS011;63685;47.374;8.498;2022-11-21T02:07:08;6.95;;;3.20;;
75098;SDS011;63685;47.374;8.498;2022-11-21T02:09:36;6.47;;;2.40;;
75098;SDS011;63685;47.374;8.498;2022-11-21T02:12:07;8.10;;;2.95;;
75098;SDS011;63685;47.374;8.498;2022-11-21T02:14:37;6.00;;;2.75;;
75098;SDS011;63685;47.374;8.498;2022-11-21T02:17:06;7.28;;;2.85;;
75098;SDS011;63685;47.374;8.498;2022-11-21T02:19:56;8.10;;;2.90;;
75098;SDS011;63685;47.374;8.498;2022-11-21T02:25:40;8.00;;;3.00;;
75098;SDS011;63685;47.374;8.498;2022-11-21T02:28:08;6.97;;;2.60;;
75098;SDS011;63685;47.374;8.498;2022-11-21T02:30:38;9.65;;;3.05;;
75098;SDS011;63685;47.374;8.498;2022-11-21T02:33:05;6.22;;;2.60;;
75098;SDS011;63685;47.374;8.498;2022-11-21T02:35:31;9.38;;;2.80;;
75098;SDS011;63685;47.374;8.498;2022-11-21T02:37:58;9.10;;;2.72;;
75098;SDS011;63685;47.374;8.498;2022-11-21T02:40:37;6.07;;;2.50;;
75098;SDS011;63685;47.374;8.498;2022-11-21T02:43:13;5.97;;;2.60;;
75098;SDS011;63685;47.374;8.498;2022-11-21T02:45:44;6.03;;;2.38;;
75098;SDS011;63685;47.374;8.498;2022-11-21T02:48:10;6.35;;;2.70;;
75098;SDS011;63685;47.374;8.498;2022-11-21T02:50:37;5.13;;;2.40;;
75098;SDS011;63685;47.374;8.498;2022-11-21T02:53:07;5.97;;;2.72;;
75098;SDS011;63685;47.374;8.498;2022-11-21T02:55:34;6.63;;;2.63;;
75098;SDS011;63685;47.374;8.498;2022-11-21T02:58:00;7.05;;;2.78;;
75098;SDS011;63685;47.374;8.498;2022-11-21T03:00:25;7.68;;;2.20;;
75098;SDS011;63685;47.374;8.498;2022-11-21T03:02:51;6.55;;;2.28;;
75098;SDS011;63685;47.374;8.498;2022-11-21T03:05:17;6.07;;;2.13;;
75098;SDS011;63685;47.374;8.498;2022-11-21T03:07:44;6.75;;;2.30;;
75098;SDS011;63685;47.374;8.498;2022-11-21T03:10:11;6.97;;;2.33;;
75098;SDS011;63685;47.374;8.498;2022-11-21T03:12:37;5.43;;;2.22;;
75098;SDS011;63685;47.374;8.498;2022-11-21T03:15:04;9.07;;;2.78;;
75098;SDS011;63685;47.374;8.498;2022-11-21T03:17:31;6.00;;;2.25;;
75098;SDS011;63685;47.374;8.498;2022-11-21T03:19:57;4.88;;;2.42;;
75098;SDS011;63685;47.374;8.498;2022-11-21T03:22:23;5.68;;;2.40;;
75098;SDS011;63685;47.374;8.498;2022-11-21T03:24:49;5.95;;;2.20;;
75098;SDS011;63685;47.374;8.498;2022-11-21T03:27:14;4.10;;;2.30;;
75098;SDS011;63685;47.374;8.498;2022-11-21T03:29:40;6.32;;;2.30;;
75098;SDS011;63685;47.374;8.498;2022-11-21T03:32:05;6.75;;;2.72;;
75098;SDS011;63685;47.374;8.498;2022-11-21T03:34:31;5.97;;;2.20;;
75098;SDS011;63685;47.374;8.498;2022-11-21T03:36:56;5.53;;;2.05;;
75098;SDS011;63685;47.374;8.498;2022-11-21T03:39:22;7.88;;;2.92;;
75098;SDS011;63685;47.374;8.498;2022-11-21T03:41:47;6.97;;;2.38;;
75098;SDS011;63685;47.374;8.498;2022-11-21T03:44:13;7.15;;;2.05;;
75098;SDS011;63685;47.374;8.498;2022-11-21T03:46:40;5.03;;;2.22;;
75098;SDS011;63685;47.374;8.498;2022-11-21T03:49:07;5.57;;;2.20;;
75098;SDS011;63685;47.374;8.498;2022-11-21T03:51:33;5.90;;;2.33;;
75098;SDS011;63685;47.374;8.498;2022-11-21T03:54:00;7.82;;;2.65;;
75098;SDS011;63685;47.374;8.498;2022-11-21T03:56:26;5.53;;;2.17;;
75098;SDS011;63685;47.374;8.498;2022-11-21T03:58:52;5.72;;;2.08;;
75098;SDS011;63685;47.374;8.498;2022-11-21T04:01:18;6.45;;;2.25;;
75098;SDS011;63685;47.374;8.498;2022-11-21T04:03:47;4.53;;;2.17;;
75098;SDS011;63685;47.374;8.498;2022-11-21T04:06:13;5.65;;;2.22;;
75098;SDS011;63685;47.374;8.498;2022-11-21T04:08:40;7.05;;;2.58;;
75098;SDS011;63685;47.374;8.498;2022-11-21T04:11:06;4.15;;;1.90;;
75098;SDS011;63685;47.374;8.498;2022-11-21T04:13:32;5.20;;;2.00;;
75098;SDS011;63685;47.374;8.498;2022-11-21T04:15:58;5.50;;;1.90;;
75098;SDS011;63685;47.374;8.498;2022-11-21T04:18:24;3.75;;;1.90;;
75098;SDS011;63685;47.374;8.498;2022-11-21T04:20:56;4.18;;;2.05;;
75098;SDS011;63685;47.374;8.498;2022-11-21T04:23:23;6.63;;;2.22;;
75098;SDS011;63685;47.374;8.498;2022-11-21T04:25:49;4.22;;;1.73;;
75098;SDS011;63685;47.374;8.498;2022-11-21T04:28:15;5.40;;;1.90;;
75098;SDS011;63685;47.374;8.498;2022-11-21T04:30:41;3.72;;;1.90;;
75098;SDS011;63685;47.374;8.498;2022-11-21T04:33:06;7.03;;;2.20;;
75098;SDS011;63685;47.374;8.498;2022-11-21T04:35:32;6.80;;;2.20;;
75098;SDS011;63685;47.374;8.498;2022-11-21T04:37:57;6.13;;;2.10;;
75098;SDS011;63685;47.374;8.498;2022-11-21T04:40:23;5.13;;;1.83;;
75098;SDS011;63685;47.374;8.498;2022-11-21T04:42:49;4.70;;;1.90;;
75098;SDS011;63685;47.374;8.498;2022-11-21T04:45:15;7.80;;;1.85;;
75098;SDS011;63685;47.374;8.498;2022-11-21T04:47:41;4.03;;;1.80;;
75098;SDS011;63685;47.374;8.498;2022-11-21T04:50:09;4.03;;;1.60;;
75098;SDS011;63685;47.374;8.498;2022-11-21T04:52:36;4.10;;;2.00;;
75098;SDS011;63685;47.374;8.498;2022-11-21T04:55:02;5.00;;;1.92;;
75098;SDS011;63685;47.374;8.498;2022-11-21T04:57:28;5.97;;;1.80;;
75098;SDS011;63685;47.374;8.498;2022-11-21T04:59:54;4.32;;;2.10;;
75098;SDS011;63685;47.374;8.498;2022-11-21T05:02:20;6.70;;;2.00;;
75098;SDS011;63685;47.374;8.498;2022-11-21T05:04:46;6.60;;;1.98;;
75098;SDS011;63685;47.374;8.498;2022-11-21T05:07:12;5.28;;;2.20;;
75098;SDS011;63685;47.374;8.498;2022-11-21T05:09:38;4.97;;;1.95;;
75098;SDS011;63685;47.374;8.498;2022-11-21T05:12:03;5.85;;;2.03;;
75098;SDS011;63685;47.374;8.498;2022-11-21T05:14:48;7.82;;;2.58;;
75098;SDS011;63685;47.374;8.498;2022-11-21T05:17:14;5.93;;;1.77;;
75098;SDS011;63685;47.374;8.498;2022-11-21T05:19:39;8.95;;;2.72;;
75098;SDS011;63685;47.374;8.498;2022-11-21T05:22:05;7.18;;;2.50;;
75098;SDS011;63685;47.374;8.498;2022-11-21T05:24:30;5.20;;;1.95;;
75098;SDS011;63685;47.374;8.498;2022-11-21T05:26:56;6.68;;;1.90;;
75098;SDS011;63685;47.374;8.498;2022-11-21T05:29:21;8.60;;;2.40;;
75098;SDS011;63685;47.374;8.498;2022-11-21T05:31:47;6.60;;;1.70;;
75098;SDS011;63685;47.374;8.498;2022-11-21T05:34:12;5.82;;;2.28;;
75098;SDS011;63685;47.374;8.498;2022-11-21T05:36:38;5.18;;;1.77;;
75098;SDS011;63685;47.374;8.498;2022-11-21T05:39:04;5.97;;;2.13;;
75098;SDS011;63685;47.374;8.498;2022-11-21T05:41:30;8.95;;;2.30;;
75098;SDS011;63685;47.374;8.498;2022-11-21T05:43:55;6.93;;;2.50;;
75098;SDS011;63685;47.374;8.498;2022-11-21T05:46:22;6.60;;;2.05;;
75098;SDS011;63685;47.374;8.498;2022-11-21T05:48:49;13.10;;;3.15;;
75098;SDS011;63685;47.374;8.498;2022-11-21T05:51:19;16.38;;;3.88;;
75098;SDS011;63685;47.374;8.498;2022-11-21T05:53:45;20.33;;;3.95;;
75098;SDS011;63685;47.374;8.498;2022-11-21T05:56:16;24.95;;;4.82;;
75098;SDS011;63685;47.374;8.498;2022-11-21T05:58:42;27.30;;;5.88;;
75098;SDS011;63685;47.374;8.498;2022-11-21T06:01:09;31.70;;;6.93;;
75098;SDS011;63685;47.374;8.498;2022-11-21T06:03:37;26.33;;;6.25;;
75098;SDS011;63685;47.374;8.498;2022-11-21T06:06:08;25.65;;;6.45;;
75098;SDS011;63685;47.374;8.498;2022-11-21T06:08:38;20.45;;;5.30;;
75098;SDS011;63685;47.374;8.498;2022-11-21T06:11:06;21.30;;;5.28;;
75098;SDS011;63685;47.374;8.498;2022-11-21T06:13:32;26.17;;;4.90;;
75098;SDS011;63685;47.374;8.498;2022-11-21T06:15:59;19.85;;;4.95;;
75098;SDS011;63685;47.374;8.498;2022-11-21T06:18:27;44.00;;;12.15;;
75098;SDS011;63685;47.374;8.498;2022-11-21T06:20:59;39.10;;;11.18;;
75098;SDS011;63685;47.374;8.498;2022-11-21T06:23:26;35.30;;;10.55;;
75098;SDS011;63685;47.374;8.498;2022-11-21T06:25:55;43.50;;;12.70;;
75098;SDS011;63685;47.374;8.498;2022-11-21T06:28:25;47.75;;;11.80;;
75098;SDS011;63685;47.374;8.498;2022-11-21T06:30:51;43.53;;;12.38;;
75098;SDS011;63685;47.374;8.498;2022-11-21T06:33:17;27.40;;;8.20;;
75098;SDS011;63685;47.374;8.498;2022-11-21T06:35:43;30.55;;;8.55;;
75098;SDS011;63685;47.374;8.498;2022-11-21T06:38:09;28.15;;;8.75;;
75098;SDS011;63685;47.374;8.498;2022-11-21T06:40:37;28.02;;;8.07;;
75098;SDS011;63685;47.374;8.498;2022-11-21T06:43:03;29.10;;;8.38;;
75098;SDS011;63685;47.374;8.498;2022-11-21T06:45:29;22.73;;;7.90;;
75098;SDS011;63685;47.374;8.498;2022-11-21T06:47:54;26.20;;;8.40;;
75098;SDS011;63685;47.374;8.498;2022-11-21T06:50:20;21.13;;;6.95;;
75098;SDS011;63685;47.374;8.498;2022-11-21T06:52:46;20.60;;;6.82;;
75098;SDS011;63685;47.374;8.498;2022-11-21T06:55:12;17.98;;;6.03;;
75098;SDS011;63685;47.374;8.498;2022-11-21T06:57:38;23.40;;;6.95;;
75098;SDS011;63685;47.374;8.498;2022-11-21T07:00:04;20.15;;;6.05;;
75098;SDS011;63685;47.374;8.498;2022-11-21T07:02:30;19.42;;;6.57;;
75098;SDS011;63685;47.374;8.498;2022-11-21T07:04:56;19.67;;;6.88;;
75098;SDS011;63685;47.374;8.498;2022-11-21T07:07:21;16.70;;;5.40;;
75098;SDS011;63685;47.374;8.498;2022-11-21T07:09:47;23.75;;;6.10;;
75098;SDS011;63685;47.374;8.498;2022-11-21T07:12:13;19.50;;;6.55;;
75098;SDS011;63685;47.374;8.498;2022-11-21T07:14:57;17.50;;;6.05;;
75098;SDS011;63685;47.374;8.498;2022-11-21T07:17:22;16.52;;;5.47;;
75098;SDS011;63685;47.374;8.498;2022-11-21T07:19:48;16.60;;;5.80;;
75098;SDS011;63685;47.374;8.498;2022-11-21T07:22:14;16.65;;;5.78;;
75098;SDS011;63685;47.374;8.498;2022-11-21T07:24:39;17.90;;;5.43;;
75098;SDS011;63685;47.374;8.498;2022-11-21T07:27:05;15.85;;;5.55;;
75098;SDS011;63685;47.374;8.498;2022-11-21T07:29:30;17.02;;;5.43;;
75098;SDS011;63685;47.374;8.498;2022-11-21T07:31:56;14.68;;;5.18;;
75098;SDS011;63685;47.374;8.498;2022-11-21T07:34:21;15.10;;;5.65;;
75098;SDS011;63685;47.374;8.498;2022-11-21T07:36:47;12.68;;;4.90;;
75098;SDS011;63685;47.374;8.498;2022-11-21T07:39:12;16.40;;;5.40;;
75098;SDS011;63685;47.374;8.498;2022-11-21T07:41:38;12.52;;;4.88;;
75098;SDS011;63685;47.374;8.498;2022-11-21T07:44:03;11.32;;;4.45;;
75098;SDS011;63685;47.374;8.498;2022-11-21T07:46:29;15.20;;;4.80;;
75098;SDS011;63685;47.374;8.498;2022-11-21T07:48:55;13.82;;;4.88;;
75098;SDS011;63685;47.374;8.498;2022-11-21T07:51:20;13.75;;;5.18;;
75098;SDS011;63685;47.374;8.498;2022-11-21T07:53:46;16.58;;;4.95;;
75098;SDS011;63685;47.374;8.498;2022-11-21T07:56:11;13.82;;;4.45;;
75098;SDS011;63685;47.374;8.498;2022-11-21T07:58:37;12.10;;;4.75;;
75098;SDS011;63685;47.374;8.498;2022-11-21T08:01:03;11.48;;;4.68;;
75098;SDS011;63685;47.374;8.498;2022-11-21T08:03:30;13.25;;;4.45;;
75098;SDS011;63685;47.374;8.498;2022-11-21T08:06:02;14.27;;;4.32;;
75098;SDS011;63685;47.374;8.498;2022-11-21T08:08:28;12.88;;;5.13;;
75098;SDS011;63685;47.374;8.498;2022-11-21T08:10:54;14.07;;;5.30;;
75098;SDS011;63685;47.374;8.498;2022-11-21T08:13:20;12.55;;;4.65;;
75098;SDS011;63685;47.374;8.498;2022-11-21T08:15:45;10.20;;;4.13;;
75098;SDS011;63685;47.374;8.498;2022-11-21T08:18:15;12.27;;;4.22;;
75098;SDS011;63685;47.374;8.498;2022-11-21T08:20:44;12.07;;;4.38;;
75098;SDS011;63685;47.374;8.498;2022-11-21T08:23:10;9.60;;;3.97;;
75098;SDS011;63685;47.374;8.498;2022-11-21T08:25:36;13.85;;;4.32;;
75098;SDS011;63685;47.374;8.498;2022-11-21T08:28:02;12.88;;;4.55;;
75098;SDS011;63685;47.374;8.498;2022-11-21T08:30:29;9.05;;;3.30;;
75098;SDS011;63685;47.374;8.498;2022-11-21T08:32:58;11.00;;;3.70;;
75098;SDS011;63685;47.374;8.498;2022-11-21T08:35:25;7.75;;;3.40;;
75098;SDS011;63685;47.374;8.498;2022-11-21T08:37:54;11.75;;;4.07;;
75098;SDS011;63685;47.374;8.498;2022-11-21T08:40:21;8.90;;;3.53;;
75098;SDS011;63685;47.374;8.498;2022-11-21T08:42:47;11.88;;;3.40;;
75098;SDS011;63685;47.374;8.498;2022-11-21T08:45:19;10.68;;;3.08;;
75098;SDS011;63685;47.374;8.498;2022-11-21T08:47:45;10.52;;;3.25;;
75098;SDS011;63685;47.374;8.498;2022-11-21T08:50:10;7.40;;;2.45;;
75098;SDS011;63685;47.374;8.498;2022-11-21T08:52:36;6.75;;;2.42;;
75098;SDS011;63685;47.374;8.498;2022-11-21T08:55:01;7.45;;;2.25;;
75098;SDS011;63685;47.374;8.498;2022-11-21T08:57:27;4.47;;;1.60;;
75098;SDS011;63685;47.374;8.498;2022-11-21T08:59:52;6.90;;;1.63;;
75098;SDS011;63685;47.374;8.498;2022-11-21T09:02:18;6.20;;;1.60;;
75098;SDS011;63685;47.374;8.498;2022-11-21T09:04:43;2.03;;;0.82;;
75098;SDS011;63685;47.374;8.498;2022-11-21T09:07:09;3.25;;;0.90;;
75098;SDS011;63685;47.374;8.498;2022-11-21T09:09:34;3.70;;;0.70;;
75098;SDS011;63685;47.374;8.498;2022-11-21T09:12:00;2.75;;;0.70;;
75098;SDS011;63685;47.374;8.498;2022-11-21T09:14:26;2.67;;;0.85;;
75098;SDS011;63685;47.374;8.498;2022-11-21T09:17:11;3.67;;;0.80;;
75098;SDS011;63685;47.374;8.498;2022-11-21T09:19:56;1.80;;;0.80;;
75098;SDS011;63685;47.374;8.498;2022-11-21T09:22:22;3.35;;;0.82;;
75098;SDS011;63685;47.374;8.498;2022-11-21T09:24:49;2.90;;;0.90;;
75098;SDS011;63685;47.374;8.498;2022-11-21T09:27:15;2.55;;;0.65;;
75098;SDS011;63685;47.374;8.498;2022-11-21T09:29:41;3.03;;;1.00;;
75098;SDS011;63685;47.374;8.498;2022-11-21T09:32:06;2.88;;;0.93;;
75098;SDS011;63685;47.374;8.498;2022-11-21T09:34:32;2.25;;;0.77;;
75098;SDS011;63685;47.374;8.498;2022-11-21T09:36:57;1.88;;;0.73;;
75098;SDS011;63685;47.374;8.498;2022-11-21T09:39:23;3.90;;;1.30;;
75098;SDS011;63685;47.374;8.498;2022-11-21T09:45:00;5.88;;;1.30;;
75098;SDS011;63685;47.374;8.498;2022-11-21T09:47:29;3.10;;;1.10;;
75098;SDS011;63685;47.374;8.498;2022-11-21T09:50:05;7.40;;;1.10;;
75098;SDS011;63685;47.374;8.498;2022-11-21T09:53:08;3.70;;;1.10;;
75098;SDS011;63685;47.374;8.498;2022-11-21T09:56:03;3.60;;;1.02;;
75098;SDS011;63685;47.374;8.498;2022-11-21T10:01:09;2.80;;;0.95;;
75098;SDS011;63685;47.374;8.498;2022-11-21T10:03:46;3.35;;;1.08;;
75098;SDS011;63685;47.374;8.498;2022-11-21T10:06:20;5.90;;;1.20;;
75098;SDS011;63685;47.374;8.498;2022-11-21T10:11:43;4.18;;;1.40;;
75098;SDS011;63685;47.374;8.498;2022-11-21T10:17:56;3.47;;;0.90;;
75098;SDS011;63685;47.374;8.498;2022-11-21T10:20:33;7.32;;;1.17;;
75098;SDS011;63685;47.374;8.498;2022-11-21T10:23:29;3.45;;;1.48;;
75098;SDS011;63685;47.374;8.498;2022-11-21T10:28:56;3.45;;;0.80;;
75098;SDS011;63685;47.374;8.498;2022-11-21T10:31:32;3.25;;;1.00;;
75098;SDS011;63685;47.374;8.498;2022-11-21T10:34:02;3.40;;;1.05;;
75098;SDS011;63685;47.374;8.498;2022-11-21T10:36:34;3.40;;;0.95;;
75098;SDS011;63685;47.374;8.498;2022-11-21T10:39:12;2.72;;;0.90;;
75098;SDS011;63685;47.374;8.498;2022-11-21T10:42:00;3.50;;;1.02;;
75098;SDS011;63685;47.374;8.498;2022-11-21T10:44:35;3.95;;;1.10;;
75098;SDS011;63685;47.374;8.498;2022-11-21T10:47:20;2.35;;;1.00;;
75098;SDS011;63685;47.374;8.498;2022-11-21T10:52:38;3.50;;;1.00;;
75098;SDS011;63685;47.374;8.498;2022-11-21T10:55:09;2.58;;;0.90;;
75098;SDS011;63685;47.374;8.498;2022-11-21T10:57:40;2.38;;;0.80;;
75098;SDS011;63685;47.374;8.498;2022-11-21T11:02:37;3.60;;;1.00;;
75098;SDS011;63685;47.374;8.498;2022-11-21T11:07:42;4.47;;;1.05;;
75098;SDS011;63685;47.374;8.498;2022-11-21T11:10:31;4.03;;;1.13;;
75098;SDS011;63685;47.374;8.498;2022-11-21T11:13:17;2.97;;;1.27;;
75098;SDS011;63685;47.374;8.498;2022-11-21T11:16:05;4.18;;;1.25;;
75098;SDS011;63685;47.374;8.498;2022-11-21T11:18:31;3.47;;;0.93;;
75098;SDS011;63685;47.374;8.498;2022-11-21T11:26:48;3.33;;;0.80;;
75098;SDS011;63685;47.374;8.498;2022-11-21T11:29:17;3.83;;;1.10;;
75098;SDS011;63685;47.374;8.498;2022-11-21T11:34:20;2.53;;;0.75;;
75098;SDS011;63685;47.374;8.498;2022-11-21T11:36:52;4.13;;;0.95;;
75098;SDS011;63685;47.374;8.498;2022-11-21T11:39:36;4.20;;;1.20;;
75098;SDS011;63685;47.374;8.498;2022-11-21T11:42:26;4.35;;;1.27;;
75098;SDS011;63685;47.374;8.498;2022-11-21T11:48:38;3.22;;;1.00;;
75098;SDS011;63685;47.374;8.498;2022-11-21T11:51:24;4.60;;;0.95;;
75098;SDS011;63685;47.374;8.498;2022-11-21T11:54:05;2.00;;;0.88;;
75098;SDS011;63685;47.374;8.498;2022-11-21T11:56:38;5.53;;;1.10;;
75098;SDS011;63685;47.374;8.498;2022-11-21T11:59:17;4.00;;;1.25;;
75098;SDS011;63685;47.374;8.498;2022-11-21T12:04:23;3.92;;;1.10;;
75098;SDS011;63685;47.374;8.498;2022-11-21T12:06:59;5.43;;;1.20;;
75098;SDS011;63685;47.374;8.498;2022-11-21T12:09:50;3.17;;;1.00;;
75098;SDS011;63685;47.374;8.498;2022-11-21T12:14:59;4.85;;;0.90;;
75098;SDS011;63685;47.374;8.498;2022-11-21T12:23:50;3.78;;;1.10;;
75098;SDS011;63685;47.374;8.498;2022-11-21T12:49:09;2.85;;;1.10;;
75098;SDS011;63685;47.374;8.498;2022-11-21T13:00:47;5.65;;;1.50;;
75098;SDS011;63685;47.374;8.498;2022-11-21T13:06:14;4.45;;;1.20;;
75098;SDS011;63685;47.374;8.498;2022-11-21T13:08:43;3.30;;;0.85;;
75098;SDS011;63685;47.374;8.498;2022-11-21T13:11:31;2.80;;;1.15;;
75098;SDS011;63685;47.374;8.498;2022-11-21T13:16:57;4.05;;;1.17;;
75098;SDS011;63685;47.374;8.498;2022-11-21T13:25:03;4.03;;;1.00;;
75098;SDS011;63685;47.374;8.498;2022-11-21T13:27:37;5.22;;;1.10;;
75098;SDS011;63685;47.374;8.498;2022-11-21T13:45:47;3.15;;;0.90;;
75098;SDS011;63685;47.374;8.498;2022-11-21T14:07:42;2.50;;;0.90;;
75098;SDS011;63685;47.374;8.498;2022-11-21T14:12:49;3.05;;;0.90;;
75098;SDS011;63685;47.374;8.498;2022-11-21T14:17:56;3.42;;;1.00;;
75098;SDS011;63685;47.374;8.498;2022-11-21T14:20:30;3.65;;;0.90;;
75098;SDS011;63685;47.374;8.498;2022-11-21T14:23:31;2.90;;;0.88;;
75098;SDS011;63685;47.374;8.498;2022-11-21T14:25:56;2.80;;;0.80;;
75098;SDS011;63685;47.374;8.498;2022-11-21T14:28:29;3.60;;;1.00;;
75098;SDS011;63685;47.374;8.498;2022-11-21T14:31:00;2.47;;;0.77;;
75098;SDS011;63685;47.374;8.498;2022-11-21T14:33:28;2.65;;;0.80;;
75098;SDS011;63685;47.374;8.498;2022-11-21T14:35:59;3.20;;;0.95;;
75098;SDS011;63685;47.374;8.498;2022-11-21T14:38:25;3.00;;;1.02;;
75098;SDS011;63685;47.374;8.498;2022-11-21T14:41:10;5.40;;;0.90;;
75098;SDS011;63685;47.374;8.498;2022-11-21T14:43:41;2.63;;;0.80;;
75098;SDS011;63685;47.374;8.498;2022-11-21T14:46:14;2.40;;;0.90;;
75098;SDS011;63685;47.374;8.498;2022-11-21T14:48:40;3.78;;;1.02;;
75098;SDS011;63685;47.374;8.498;2022-11-21T14:51:07;3.42;;;0.93;;
75098;SDS011;63685;47.374;8.498;2022-11-21T14:53:35;2.05;;;0.80;;
75098;SDS011;63685;47.374;8.498;2022-11-21T14:56:04;2.90;;;1.08;;
75098;SDS011;63685;47.374;8.498;2022-11-21T14:58:30;4.05;;;0.80;;
75098;SDS011;63685;47.374;8.498;2022-11-21T15:01:18;3.30;;;0.98;;
75098;SDS011;63685;47.374;8.498;2022-11-21T15:03:55;4.60;;;0.90;;
75098;SDS011;63685;47.374;8.498;2022-11-21T15:06:22;2.75;;;0.75;;
75098;SDS011;63685;47.374;8.498;2022-11-21T15:08:50;4.30;;;1.08;;
75098;SDS011;63685;47.374;8.498;2022-11-21T15:11:18;2.30;;;1.10;;
75098;SDS011;63685;47.374;8.498;2022-11-21T15:13:46;2.75;;;0.90;;
75098;SDS011;63685;47.374;8.498;2022-11-21T15:16:17;2.22;;;0.70;;
75098;SDS011;63685;47.374;8.498;2022-11-21T15:18:43;2.22;;;1.00;;
75098;SDS011;63685;47.374;8.498;2022-11-21T15:21:12;3.53;;;1.30;;
75098;SDS011;63685;47.374;8.498;2022-11-21T15:23:39;1.65;;;0.75;;
75098;SDS011;63685;47.374;8.498;2022-11-21T15:26:23;2.38;;;0.75;;
75098;SDS011;63685;47.374;8.498;2022-11-21T15:28:53;3.70;;;0.90;;
75098;SDS011;63685;47.374;8.498;2022-11-21T15:31:20;2.65;;;1.15;;
75098;SDS011;63685;47.374;8.498;2022-11-21T15:33:54;4.60;;;0.90;;
75098;SDS011;63685;47.374;8.498;2022-11-21T15:36:20;3.17;;;0.90;;
75098;SDS011;63685;47.374;8.498;2022-11-21T15:38:49;2.92;;;0.95;;
75098;SDS011;63685;47.374;8.498;2022-11-21T15:46:21;2.22;;;0.88;;
75098;SDS011;63685;47.374;8.498;2022-11-21T15:48:59;2.95;;;0.77;;
75098;SDS011;63685;47.374;8.498;2022-11-21T15:51:29;2.65;;;0.80;;
75098;SDS011;63685;47.374;8.498;2022-11-21T15:54:01;1.70;;;0.70;;
75098;SDS011;63685;47.374;8.498;2022-11-21T15:56:27;2.63;;;0.95;;
75098;SDS011;63685;47.374;8.498;2022-11-21T15:58:53;3.15;;;0.88;;
75098;SDS011;63685;47.374;8.498;2022-11-21T16:01:22;2.25;;;0.70;;
75098;SDS011;63685;47.374;8.498;2022-11-21T16:03:53;2.60;;;0.70;;
75098;SDS011;63685;47.374;8.498;2022-11-21T16:06:21;3.65;;;0.88;;
75098;SDS011;63685;47.374;8.498;2022-11-21T16:08:47;3.25;;;0.63;;
75098;SDS011;63685;47.374;8.498;2022-11-21T16:11:17;2.35;;;0.63;;
75098;SDS011;63685;47.374;8.498;2022-11-21T16:13:50;1.63;;;0.65;;
75098;SDS011;63685;47.374;8.498;2022-11-21T16:16:18;2.30;;;0.73;;
75098;SDS011;63685;47.374;8.498;2022-11-21T16:18:44;1.77;;;0.65;;
75098;SDS011;63685;47.374;8.498;2022-11-21T16:21:10;2.05;;;0.70;;
75098;SDS011;63685;47.374;8.498;2022-11-21T16:23:36;2.90;;;0.80;;
75098;SDS011;63685;47.374;8.498;2022-11-21T16:26:03;2.88;;;0.73;;
75098;SDS011;63685;47.374;8.498;2022-11-21T16:28:29;3.15;;;0.75;;
75098;SDS011;63685;47.374;8.498;2022-11-21T16:30:58;3.47;;;0.85;;
75098;SDS011;63685;47.374;8.498;2022-11-21T16:33:26;2.28;;;0.70;;
75098;SDS011;63685;47.374;8.498;2022-11-21T16:35:52;2.67;;;0.70;;
75098;SDS011;63685;47.374;8.498;2022-11-21T16:38:21;2.35;;;0.70;;
75098;SDS011;63685;47.374;8.498;2022-11-21T16:40:53;1.88;;;0.70;;
75098;SDS011;63685;47.374;8.498;2022-11-21T16:43:21;2.53;;;0.82;;
75098;SDS011;63685;47.374;8.498;2022-11-21T16:45:47;2.88;;;0.70;;
75098;SDS011;63685;47.374;8.498;2022-11-21T16:48:12;1.92;;;0.80;;
75098;SDS011;63685;47.374;8.498;2022-11-21T16:50:38;2.15;;;0.80;;
75098;SDS011;63685;47.374;8.498;2022-11-21T16:53:04;1.70;;;0.60;;
75098;SDS011;63685;47.374;8.498;2022-11-21T16:55:29;1.58;;;0.60;;
75098;SDS011;63685;47.374;8.498;2022-11-21T16:57:55;1.88;;;0.60;;
75098;SDS011;63685;47.374;8.498;2022-11-21T17:00:24;1.38;;;0.63;;
75098;SDS011;63685;47.374;8.498;2022-11-21T17:02:51;1.95;;;0.57;;
75098;SDS011;63685;47.374;8.498;2022-11-21T17:05:17;2.75;;;0.60;;
75098;SDS011;63685;47.374;8.498;2022-11-21T17:07:43;1.40;;;0.57;;
75098;SDS011;63685;47.374;8.498;2022-11-21T17:10:09;2.47;;;0.70;;
75098;SDS011;63685;47.374;8.498;2022-11-21T17:12:36;1.90;;;0.75;;
75098;SDS011;63685;47.374;8.498;2022-11-21T17:15:03;2.28;;;0.75;;
75098;SDS011;63685;47.374;8.498;2022-11-21T17:17:33;2.53;;;1.08;;
75098;SDS011;63685;47.374;8.498;2022-11-21T17:20:00;3.42;;;1.30;;